Time;durP1;ratioP1;P1;durP2;ratioP2;P2;SDS_P1;SDS_P2;PMS_P1;PMS_P2;Temp;Humidity;BMP_temperature;BMP_pressure;BME280_temperature;BME280_humidity;BME280_pressure;Samples;Min_cycle;Max_cycle;Signal;HPM_P1;HPM_P2
2023/05/17 00:01:50;;;;;;;0.20;0.20;;;11.90;99.90;;;;;;5094635;28;20031;-89
2023/05/17 00:04:16;;;;;;;0.10;0.10;;;11.90;99.90;;;;;;5093492;28;20170;-89
2023/05/17 00:06:42;;;;;;;0.10;0.10;;;11.90;99.90;;;;;;5094658;28;20032;-88
2023/05/17 00:09:08;;;;;;;0.63;0.63;;;11.80;99.90;;;;;;5093478;28;20028;-89
2023/05/17 00:11:34;;;;;;;0.03;0.03;;;11.90;99.90;;;;;;5092973;28;20038;-89
2023/05/17 00:13:59;;;;;;;0.10;0.10;;;11.80;99.90;;;;;;5093123;28;20040;-89
2023/05/17 00:16:25;;;;;;;0.20;0.20;;;11.70;99.90;;;;;;5094081;28;20020;-89
2023/05/17 00:18:51;;;;;;;0.20;0.20;;;11.70;99.90;;;;;;5094363;28;20538;-88
2023/05/17 00:21:16;;;;;;;0.00;0.00;;;11.80;99.90;;;;;;5094564;28;20048;-89
2023/05/17 00:23:42;;;;;;;0.52;0.20;;;11.70;99.90;;;;;;5092894;28;20035;-89
2023/05/17 00:26:08;;;;;;;7.88;0.40;;;11.70;99.90;;;;;;5093206;28;20139;-89
2023/05/17 00:28:33;;;;;;;0.17;0.17;;;11.60;99.90;;;;;;5093823;28;20073;-89
2023/05/17 00:30:59;;;;;;;0.95;0.60;;;11.60;99.90;;;;;;5094023;28;20035;-89
2023/05/17 00:33:25;;;;;;;5.78;0.43;;;11.60;99.90;;;;;;5094220;28;20073;-88
2023/05/17 00:35:50;;;;;;;0.43;0.43;;;11.50;99.90;;;;;;5094205;28;20114;-88
2023/05/17 00:38:16;;;;;;;0.13;0.13;;;11.50;99.90;;;;;;5093725;28;20020;-88
2023/05/17 00:40:41;;;;;;;0.17;0.17;;;11.50;99.90;;;;;;5093953;28;20020;-89
2023/05/17 00:43:07;;;;;;;0.03;0.03;;;11.40;99.90;;;;;;5092400;28;20140;-89
2023/05/17 00:45:33;;;;;;;0.10;0.10;;;11.50;99.90;;;;;;5093088;28;20024;-89
2023/05/17 00:47:58;;;;;;;0.10;0.10;;;11.40;99.90;;;;;;5093576;28;20028;-88
2023/05/17 00:50:24;;;;;;;0.40;0.40;;;11.40;99.90;;;;;;5093640;28;20392;-88
2023/05/17 00:52:50;;;;;;;0.10;0.10;;;11.40;99.90;;;;;;5093594;28;20491;-89
2023/05/17 00:55:18;;;;;;;0.28;0.28;;;11.40;99.90;;;;;;5092545;28;20034;-88
2023/05/17 00:57:44;;;;;;;0.20;0.20;;;11.40;99.90;;;;;;5093280;28;20084;-89
2023/05/17 01:00:11;;;;;;;0.10;0.10;;;11.30;99.90;;;;;;5092729;28;20128;-89
2023/05/17 01:02:36;;;;;;;0.32;0.32;;;11.30;99.90;;;;;;5092346;28;20530;-88
2023/05/17 01:05:03;;;;;;;0.17;0.17;;;11.30;99.90;;;;;;5093833;28;20028;-88
2023/05/17 01:07:28;;;;;;;0.10;0.10;;;11.20;99.90;;;;;;5092457;28;20030;-89
2023/05/17 01:09:54;;;;;;;0.10;0.10;;;11.20;99.90;;;;;;5092472;28;20020;-88
2023/05/17 01:12:28;;;;;;;0.40;0.40;;;11.20;99.90;;;;;;5093270;28;20545;-89
2023/05/17 01:15:00;;;;;;;0.10;0.10;;;11.30;99.90;;;;;;5092251;28;20426;-89
2023/05/17 01:17:34;;;;;;;0.95;0.60;;;11.20;99.90;;;;;;5092743;28;20028;-88
2023/05/17 01:20:18;;;;;;;0.28;0.28;;;11.20;99.90;;;;;;5093024;28;20462;-89
2023/05/17 01:22:52;;;;;;;0.03;0.03;;;11.10;99.90;;;;;;5093661;28;20024;-89
2023/05/17 01:25:36;;;;;;;0.00;0.00;;;11.00;99.90;;;;;;5092159;28;20051;-89
2023/05/17 01:28:03;;;;;;;0.10;0.10;;;11.10;99.90;;;;;;5092904;28;20035;-89
2023/05/17 01:30:32;;;;;;;0.10;0.10;;;11.00;99.90;;;;;;5091850;28;20038;-89
2023/05/17 01:32:59;;;;;;;0.40;0.35;;;11.10;99.90;;;;;;5093092;28;20107;-89
2023/05/17 01:35:25;;;;;;;0.10;0.10;;;11.10;99.90;;;;;;5091735;28;20481;-89
2023/05/17 01:37:53;;;;;;;0.00;0.00;;;11.00;99.90;;;;;;5093053;28;20035;-89
2023/05/17 01:40:19;;;;;;;0.20;0.20;;;11.10;99.90;;;;;;5093611;28;20061;-88
2023/05/17 01:42:51;;;;;;;0.10;0.10;;;11.00;99.90;;;;;;5092696;28;20129;-89
2023/05/17 01:45:26;;;;;;;0.20;0.20;;;11.00;99.90;;;;;;5092007;28;20077;-89
2023/05/17 01:48:17;;;;;;;0.30;0.30;;;10.90;99.90;;;;;;5092977;28;20048;-89
2023/05/17 01:50:47;;;;;;;0.22;0.22;;;10.90;99.90;;;;;;5093001;28;20036;-89
2023/05/17 01:53:37;;;;;;;0.10;0.10;;;10.90;99.90;;;;;;5091958;28;20031;-88
2023/05/17 01:56:08;;;;;;;15.32;0.63;;;10.80;99.90;;;;;;5086913;28;20051;-89
2023/05/17 01:58:45;;;;;;;0.10;0.10;;;10.70;99.90;;;;;;5096206;28;20032;-88
2023/05/17 02:01:13;;;;;;;0.30;0.30;;;10.90;99.90;;;;;;5096041;28;20412;-88
2023/05/17 02:03:39;;;;;;;0.32;0.32;;;10.70;99.90;;;;;;5097337;28;20051;-88
2023/05/17 02:06:04;;;;;;;0.40;0.40;;;10.70;99.90;;;;;;5096951;28;20059;-89
2023/05/17 02:08:30;;;;;;;0.10;0.10;;;10.80;99.90;;;;;;5096737;28;20039;-89
2023/05/17 02:10:56;;;;;;;0.47;0.47;;;10.70;99.90;;;;;;5095381;28;20040;-89
2023/05/17 02:13:21;;;;;;;0.10;0.10;;;10.70;99.90;;;;;;5095685;28;20027;-89
2023/05/17 02:15:47;;;;;;;0.20;0.20;;;10.60;99.90;;;;;;5096943;28;20488;-89
2023/05/17 02:18:12;;;;;;;0.20;0.20;;;10.60;99.90;;;;;;5095875;28;20096;-88
2023/05/17 02:20:38;;;;;;;0.95;0.57;;;10.50;99.90;;;;;;5096444;28;20612;-89
2023/05/17 02:23:04;;;;;;;0.10;0.10;;;10.60;99.90;;;;;;5096667;28;20043;-88
2023/05/17 02:25:29;;;;;;;0.05;0.05;;;11.00;99.90;;;;;;5096347;28;20032;-88
2023/05/17 02:27:55;;;;;;;1.45;0.68;;;10.60;99.90;;;;;;5096395;28;20024;-89
2023/05/17 02:30:21;;;;;;;0.00;0.00;;;10.50;99.90;;;;;;5095315;28;20185;-89
2023/05/17 02:32:47;;;;;;;0.10;0.10;;;10.50;99.90;;;;;;5096236;28;20111;-89
2023/05/17 02:35:13;;;;;;;0.13;0.13;;;10.50;99.90;;;;;;5129425;27;20115;-88
2023/05/17 02:37:39;;;;;;;0.10;0.10;;;10.50;99.90;;;;;;5095417;28;20078;-89
2023/05/17 02:40:08;;;;;;;0.10;0.10;;;10.50;99.90;;;;;;5096369;28;20024;-89
2023/05/17 02:42:34;;;;;;;0.73;0.52;;;10.50;99.90;;;;;;5095990;28;20131;-89
2023/05/17 02:45:00;;;;;;;0.20;0.20;;;10.50;99.90;;;;;;5095295;28;20020;-88
2023/05/17 02:47:26;;;;;;;0.10;0.10;;;10.40;99.90;;;;;;5094796;28;20055;-89
2023/05/17 02:49:51;;;;;;;0.15;0.15;;;10.50;99.90;;;;;;5095014;28;20084;-89
2023/05/17 02:52:17;;;;;;;0.00;0.00;;;9.90;99.90;;;;;;5095199;28;20090;-88
2023/05/17 02:54:43;;;;;;;0.20;0.20;;;10.30;99.90;;;;;;5094236;28;20508;-89
2023/05/17 02:57:09;;;;;;;0.15;0.15;;;10.30;99.90;;;;;;5095925;28;20036;-89
2023/05/17 02:59:35;;;;;;;0.45;0.45;;;10.30;99.90;;;;;;5095896;28;20035;-88
2023/05/17 03:02:01;;;;;;;0.10;0.10;;;10.20;99.90;;;;;;5095711;28;20028;-89
2023/05/17 03:04:26;;;;;;;0.00;0.00;;;10.20;99.90;;;;;;5094924;28;20480;-88
2023/05/17 03:06:52;;;;;;;0.35;0.35;;;10.20;99.90;;;;;;5094115;28;20024;-89
2023/05/17 03:09:18;;;;;;;0.22;0.22;;;10.10;99.90;;;;;;5093955;28;20020;-88
2023/05/17 03:11:43;;;;;;;0.10;0.10;;;10.60;99.90;;;;;;5094521;28;20040;-89
2023/05/17 03:14:09;;;;;;;0.10;0.10;;;10.10;99.90;;;;;;5094371;28;20480;-88
2023/05/17 03:16:35;;;;;;;0.43;0.43;;;10.20;99.90;;;;;;5095970;28;20105;-89
2023/05/17 03:19:00;;;;;;;0.10;0.10;;;10.00;99.90;;;;;;5094152;28;20012;-88
2023/05/17 03:21:26;;;;;;;0.40;0.40;;;10.10;99.90;;;;;;5094262;28;20043;-89
2023/05/17 03:23:52;;;;;;;1.65;0.85;;;10.00;99.90;;;;;;5094051;28;20016;-89
2023/05/17 03:26:18;;;;;;;0.10;0.10;;;10.40;99.90;;;;;;5094462;28;20024;-89
2023/05/17 03:28:45;;;;;;;0.38;0.38;;;10.50;99.90;;;;;;5094517;28;20093;-88
2023/05/17 03:31:11;;;;;;;0.10;0.10;;;10.00;99.90;;;;;;5094090;28;20040;-88
2023/05/17 03:33:37;;;;;;;0.20;0.20;;;10.00;99.90;;;;;;5095423;28;20035;-89
2023/05/17 03:36:03;;;;;;;0.32;0.32;;;10.00;99.90;;;;;;5095339;28;20106;-88
2023/05/17 03:38:28;;;;;;;0.17;0.17;;;10.00;99.90;;;;;;5093962;28;20020;-89
2023/05/17 03:40:54;;;;;;;0.10;0.10;;;10.00;99.90;;;;;;5093674;28;20062;-88
2023/05/17 03:43:20;;;;;;;0.10;0.10;;;10.00;99.90;;;;;;5093614;28;20481;-89
2023/05/17 03:45:45;;;;;;;0.20;0.20;;;9.80;99.90;;;;;;5095444;28;20032;-88
2023/05/17 03:48:11;;;;;;;0.10;0.10;;;9.90;99.90;;;;;;5094994;28;20012;-88
2023/05/17 03:50:39;;;;;;;0.00;0.00;;;9.90;99.90;;;;;;5094118;28;20374;-88
2023/05/17 03:53:05;;;;;;;0.20;0.20;;;9.80;99.90;;;;;;5094496;28;20492;-88
2023/05/17 03:55:31;;;;;;;0.20;0.20;;;9.80;99.90;;;;;;5094749;28;20081;-89
2023/05/17 03:57:57;;;;;;;7.68;0.65;;;9.70;99.90;;;;;;5093464;28;20145;-89
2023/05/17 04:00:23;;;;;;;0.15;0.15;;;9.80;99.90;;;;;;5127708;27;20103;-89
2023/05/17 04:02:50;;;;;;;0.50;0.50;;;9.80;99.90;;;;;;5094650;28;20647;-89
2023/05/17 04:05:16;;;;;;;0.10;0.10;;;9.60;99.90;;;;;;5093471;28;20111;-88
2023/05/17 04:07:42;;;;;;;0.15;0.15;;;9.70;99.90;;;;;;5094219;28;20063;-89
2023/05/17 04:10:08;;;;;;;0.10;0.10;;;9.50;99.90;;;;;;5095239;28;20476;-88
2023/05/17 04:12:34;;;;;;;0.15;0.15;;;9.50;99.90;;;;;;5094995;28;20056;-88
2023/05/17 04:15:00;;;;;;;0.00;0.00;;;9.60;99.90;;;;;;5094410;28;20043;-89
2023/05/17 04:17:26;;;;;;;0.10;0.10;;;9.60;99.90;;;;;;5094365;28;20035;-88
2023/05/17 04:19:52;;;;;;;0.10;0.10;;;9.50;99.90;;;;;;5092814;28;20039;-88
2023/05/17 04:22:19;;;;;;;0.10;0.10;;;10.00;99.90;;;;;;5092795;28;20112;-88
2023/05/17 04:24:45;;;;;;;0.10;0.10;;;9.60;99.90;;;;;;5093029;28;20119;-89
2023/05/17 04:27:11;;;;;;;0.10;0.10;;;9.60;99.90;;;;;;5094097;28;20047;-88
2023/05/17 04:29:37;;;;;;;0.05;0.05;;;9.70;99.90;;;;;;5094357;28;20550;-88
2023/05/17 04:32:03;;;;;;;0.00;0.00;;;9.60;99.90;;;;;;5092905;28;20032;-89
2023/05/17 04:34:30;;;;;;;0.10;0.10;;;9.50;99.90;;;;;;5094171;28;20427;-90
2023/05/17 04:36:56;;;;;;;0.70;0.70;;;9.60;99.90;;;;;;5094232;28;20452;-90
2023/05/17 04:39:22;;;;;;;0.10;0.10;;;9.60;99.90;;;;;;5094334;28;20102;-91
2023/05/17 04:41:48;;;;;;;0.22;0.20;;;9.60;99.90;;;;;;5092756;28;20169;-87
2023/05/17 04:44:13;;;;;;;0.20;0.20;;;9.60;99.90;;;;;;5094075;28;20074;-89
2023/05/17 04:46:40;;;;;;;0.10;0.10;;;9.20;99.90;;;;;;5092721;28;20503;-89
2023/05/17 04:49:06;;;;;;;0.10;0.10;;;9.50;99.90;;;;;;5094060;28;20024;-88
2023/05/17 04:51:32;;;;;;;0.10;0.10;;;9.60;99.90;;;;;;5092439;28;20085;-89
2023/05/17 04:53:59;;;;;;;0.10;0.10;;;9.50;99.90;;;;;;5093848;28;20023;-89
2023/05/17 04:56:25;;;;;;;0.25;0.25;;;10.00;99.90;;;;;;5093747;28;20039;-89
2023/05/17 04:58:51;;;;;;;0.20;0.20;;;9.50;99.90;;;;;;5092662;28;20484;-88
2023/05/17 05:01:17;;;;;;;1.10;0.90;;;9.50;99.90;;;;;;5092755;28;20126;-89
2023/05/17 05:03:42;;;;;;;0.10;0.10;;;9.50;99.90;;;;;;5093381;28;20020;-88
2023/05/17 05:06:08;;;;;;;0.10;0.10;;;9.50;99.90;;;;;;5093164;28;20116;-89
2023/05/17 05:08:34;;;;;;;0.03;0.03;;;9.50;99.90;;;;;;5092534;28;20437;-88
2023/05/17 05:10:59;;;;;;;0.10;0.10;;;9.60;99.90;;;;;;5093672;28;20032;-89
2023/05/17 05:13:25;;;;;;;0.10;0.10;;;9.60;99.90;;;;;;5078449;28;20085;-88
2023/05/17 05:15:51;;;;;;;0.10;0.10;;;9.40;99.90;;;;;;5072192;28;20056;-88
2023/05/17 05:18:16;;;;;;;0.85;0.30;;;9.40;99.90;;;;;;5072998;28;20477;-89
2023/05/17 05:20:42;;;;;;;0.10;0.10;;;9.30;99.90;;;;;;5092377;28;20048;-89
2023/05/17 05:23:08;;;;;;;0.10;0.10;;;9.50;99.90;;;;;;5093342;28;20028;-89
2023/05/17 05:25:34;;;;;;;0.17;0.17;;;9.40;99.90;;;;;;5093444;28;20081;-89
2023/05/17 05:27:59;;;;;;;0.00;0.00;;;9.50;99.90;;;;;;5093222;28;20032;-89
2023/05/17 05:30:25;;;;;;;0.08;0.08;;;9.60;99.90;;;;;;5092140;28;20096;-89
2023/05/17 05:32:51;;;;;;;0.10;0.10;;;9.40;99.90;;;;;;5092993;28;20077;-88
2023/05/17 05:35:17;;;;;;;0.13;0.13;;;9.50;99.90;;;;;;5092888;28;20097;-88
2023/05/17 05:37:43;;;;;;;0.20;0.20;;;9.60;99.90;;;;;;5093103;28;20111;-87
2023/05/17 05:40:10;;;;;;;0.00;0.00;;;9.50;99.90;;;;;;5093368;28;20051;-88
2023/05/17 05:42:36;;;;;;;0.10;0.10;;;9.60;99.90;;;;;;5092011;28;20480;-89
2023/05/17 05:45:02;;;;;;;0.40;0.40;;;9.70;99.90;;;;;;5091960;28;20031;-89
2023/05/17 05:47:27;;;;;;;0.60;0.60;;;9.80;99.90;;;;;;5092460;28;20031;-89
2023/05/17 05:49:53;;;;;;;0.20;0.20;;;9.90;99.90;;;;;;5093226;28;20024;-89
2023/05/17 05:52:18;;;;;;;0.10;0.10;;;9.80;99.90;;;;;;5092080;28;20496;-88
2023/05/17 05:54:44;;;;;;;0.15;0.15;;;9.90;99.90;;;;;;5091878;28;20399;-88
2023/05/17 05:57:10;;;;;;;0.10;0.10;;;9.80;99.90;;;;;;5091496;28;20441;-90
2023/05/17 05:59:36;;;;;;;0.10;0.10;;;9.70;99.90;;;;;;5091932;28;20146;-88
2023/05/17 06:02:01;;;;;;;0.20;0.20;;;9.90;99.90;;;;;;5092507;28;20111;-89
2023/05/17 06:04:27;;;;;;;0.80;0.52;;;10.10;99.90;;;;;;5086257;28;20028;-86
2023/05/17 06:06:53;;;;;;;0.10;0.10;;;10.20;99.90;;;;;;5074090;28;20040;-87
2023/05/17 06:09:19;;;;;;;0.20;0.20;;;10.50;99.90;;;;;;5074899;28;20032;-85
2023/05/17 06:11:44;;;;;;;0.20;0.20;;;10.50;99.90;;;;;;5089493;28;20047;-87
2023/05/17 06:14:10;;;;;;;0.10;0.10;;;10.60;99.90;;;;;;5081742;28;20047;-83
2023/05/17 06:16:36;;;;;;;0.00;0.00;;;10.60;99.90;;;;;;5083245;28;20035;-85
2023/05/17 06:19:02;;;;;;;0.20;0.20;;;10.90;99.90;;;;;;5090705;28;20020;-83
2023/05/17 06:21:28;;;;;;;0.10;0.10;;;11.10;99.90;;;;;;5090808;28;20108;-84
2023/05/17 06:23:54;;;;;;;0.22;0.20;;;10.80;99.90;;;;;;5091291;28;20032;-84
2023/05/17 06:26:20;;;;;;;0.20;0.20;;;10.90;99.90;;;;;;5090344;28;20479;-83
2023/05/17 06:28:45;;;;;;;0.10;0.10;;;10.80;99.90;;;;;;5091339;28;20024;-83
2023/05/17 06:31:11;;;;;;;0.10;0.10;;;11.00;99.90;;;;;;5091506;28;20036;-85
2023/05/17 06:33:36;;;;;;;0.43;0.43;;;11.00;99.90;;;;;;5092813;28;20021;-87
2023/05/17 06:36:02;;;;;;;0.20;0.20;;;11.10;99.90;;;;;;5090380;28;20092;-84
2023/05/17 06:38:28;;;;;;;0.20;0.20;;;11.20;99.90;;;;;;5091127;28;20043;-84
2023/05/17 06:40:54;;;;;;;0.10;0.10;;;11.30;99.90;;;;;;5091319;28;20027;-83
2023/05/17 06:43:20;;;;;;;0.10;0.10;;;11.20;99.90;;;;;;5093659;28;20031;-84
2023/05/17 06:45:46;;;;;;;0.30;0.30;;;11.10;99.90;;;;;;5093664;28;20043;-83
2023/05/17 06:48:12;;;;;;;0.28;0.28;;;11.30;99.90;;;;;;5094191;28;20479;-85
2023/05/17 06:50:38;;;;;;;0.52;0.47;;;11.50;99.90;;;;;;5094544;28;20020;-84
2023/05/17 06:53:04;;;;;;;0.10;0.10;;;11.60;99.90;;;;;;5091090;28;20031;-83
2023/05/17 06:55:30;;;;;;;0.20;0.20;;;11.70;99.90;;;;;;5084505;28;20024;-83
2023/05/17 06:57:55;;;;;;;0.03;0.03;;;11.70;99.90;;;;;;5076400;28;20058;-83
2023/05/17 07:00:21;;;;;;;0.28;0.28;;;11.80;99.90;;;;;;5082848;28;20056;-83
2023/05/17 07:02:47;;;;;;;0.10;0.10;;;11.90;99.90;;;;;;5094546;28;20107;-83
2023/05/17 07:05:12;;;;;;;0.20;0.20;;;11.90;99.90;;;;;;5094473;28;20028;-83
2023/05/17 07:07:38;;;;;;;0.20;0.20;;;12.00;99.90;;;;;;5093908;28;20024;-83
2023/05/17 07:10:05;;;;;;;0.15;0.15;;;12.10;99.90;;;;;;5094241;28;20107;-83
2023/05/17 07:12:32;;;;;;;0.00;0.00;;;12.00;99.90;;;;;;5090419;28;20067;-83
2023/05/17 07:14:57;;;;;;;0.10;0.10;;;12.10;99.90;;;;;;5089001;28;20038;-83
2023/05/17 07:17:23;;;;;;;0.05;0.05;;;12.00;99.90;;;;;;5093492;28;20032;-83
2023/05/17 07:19:49;;;;;;;0.00;0.00;;;11.90;99.90;;;;;;5094038;28;20040;-84
2023/05/17 07:22:16;;;;;;;0.10;0.10;;;12.00;99.90;;;;;;5094171;28;20087;-84
2023/05/17 07:24:43;;;;;;;0.00;0.00;;;12.10;99.90;;;;;;5094296;28;20165;-83
2023/05/17 07:27:08;;;;;;;0.10;0.10;;;12.00;99.90;;;;;;5093772;28;20032;-84
2023/05/17 07:29:34;;;;;;;0.10;0.10;;;12.10;99.90;;;;;;5093950;28;20035;-83
2023/05/17 07:32:00;;;;;;;0.20;0.20;;;12.10;99.90;;;;;;5094315;28;20085;-84
2023/05/17 07:34:25;;;;;;;0.20;0.20;;;12.00;99.90;;;;;;5094977;28;20097;-83
2023/05/17 07:36:51;;;;;;;0.20;0.20;;;12.10;99.90;;;;;;5094215;28;20402;-83
2023/05/17 07:39:17;;;;;;;9.63;0.52;;;12.20;99.90;;;;;;5093990;28;20518;-83
2023/05/17 07:41:42;;;;;;;0.00;0.00;;;12.30;99.90;;;;;;5094130;28;20493;-83
2023/05/17 07:44:08;;;;;;;0.00;0.00;;;12.60;99.90;;;;;;5093705;28;20450;-83
2023/05/17 07:46:34;;;;;;;0.10;0.10;;;12.30;99.90;;;;;;5093990;28;20036;-83
2023/05/17 07:49:00;;;;;;;3.00;0.55;;;12.40;99.90;;;;;;5093939;28;20024;-83
2023/05/17 07:51:25;;;;;;;0.10;0.10;;;12.50;99.90;;;;;;5093969;28;20482;-83
2023/05/17 07:53:51;;;;;;;0.08;0.08;;;12.60;99.90;;;;;;5093806;28;20086;-83
2023/05/17 07:56:17;;;;;;;0.10;0.10;;;12.80;99.90;;;;;;5093752;28;20028;-82
2023/05/17 07:58:42;;;;;;;0.00;0.00;;;12.90;99.90;;;;;;5093472;28;20043;-83
2023/05/17 08:01:08;;;;;;;0.20;0.20;;;13.10;99.90;;;;;;5093718;28;20020;-83
2023/05/17 08:03:35;;;;;;;0.20;0.20;;;12.90;99.90;;;;;;5093872;28;20050;-83
2023/05/17 08:06:00;;;;;;;0.17;0.17;;;12.90;99.90;;;;;;5094162;28;20494;-83
2023/05/17 08:08:26;;;;;;;0.20;0.20;;;13.10;99.90;;;;;;5094021;28;20028;-83
2023/05/17 08:10:52;;;;;;;0.10;0.10;;;13.00;99.90;;;;;;5093791;28;20032;-83
2023/05/17 08:13:18;;;;;;;1.23;0.70;;;13.20;99.90;;;;;;5093048;28;20030;-83
2023/05/17 08:15:43;;;;;;;0.10;0.10;;;13.50;99.90;;;;;;5093556;28;20032;-83
2023/05/17 08:18:09;;;;;;;0.80;0.40;;;13.60;99.90;;;;;;5093596;28;20032;-83
2023/05/17 08:20:35;;;;;;;0.10;0.10;;;13.70;99.90;;;;;;5093227;28;20055;-83
2023/05/17 08:23:01;;;;;;;0.15;0.15;;;13.80;99.90;;;;;;5093803;28;20028;-83
2023/05/17 08:25:26;;;;;;;0.25;0.25;;;13.80;99.90;;;;;;5093415;28;20020;-83
2023/05/17 08:27:52;;;;;;;0.10;0.10;;;13.90;99.90;;;;;;5092876;28;20077;-83
2023/05/17 08:30:17;;;;;;;0.00;0.00;;;14.00;99.90;;;;;;5093203;28;20038;-83
2023/05/17 08:32:44;;;;;;;0.50;0.43;;;13.90;99.90;;;;;;5093415;28;20035;-83
2023/05/17 08:35:10;;;;;;;0.08;0.08;;;13.90;99.90;;;;;;5093202;28;20430;-84
2023/05/17 08:37:35;;;;;;;0.00;0.00;;;14.10;99.90;;;;;;5093243;28;20089;-83
2023/05/17 08:40:03;;;;;;;0.00;0.00;;;13.90;99.90;;;;;;5092989;28;20032;-83
2023/05/17 08:42:29;;;;;;;0.15;0.15;;;14.10;99.90;;;;;;5093025;28;20157;-83
2023/05/17 08:44:55;;;;;;;0.20;0.20;;;14.20;99.90;;;;;;5093071;28;20384;-83
2023/05/17 08:47:32;;;;;;;0.28;0.28;;;14.30;99.90;;;;;;5092727;28;20024;-83
2023/05/17 08:50:04;;;;;;;0.38;0.38;;;14.50;99.90;;;;;;5092792;28;20035;-83
2023/05/17 08:52:31;;;;;;;0.03;0.03;;;14.50;99.90;;;;;;5092754;28;20070;-83
2023/05/17 08:54:59;;;;;;;1.02;0.68;;;14.80;99.90;;;;;;5092939;28;20017;-83
2023/05/17 08:57:27;;;;;;;0.15;0.15;;;14.70;99.90;;;;;;5092311;28;20028;-83
2023/05/17 08:59:54;;;;;;;0.82;0.10;;;14.50;99.90;;;;;;5092692;28;20515;-83
2023/05/17 09:02:21;;;;;;;0.20;0.20;;;14.70;99.90;;;;;;5092971;28;20104;-83
2023/05/17 09:04:54;;;;;;;0.10;0.10;;;14.80;99.90;;;;;;5092106;28;20027;-84
2023/05/17 09:07:22;;;;;;;0.32;0.32;;;14.90;99.90;;;;;;5092536;28;20205;-82
2023/05/17 09:09:52;;;;;;;0.43;0.40;;;14.70;99.90;;;;;;5092842;28;20101;-83
2023/05/17 09:12:19;;;;;;;0.38;0.38;;;14.80;99.90;;;;;;5092049;28;20491;-83
2023/05/17 09:14:45;;;;;;;0.40;0.40;;;14.90;99.90;;;;;;5092379;28;20024;-83
2023/05/17 09:17:15;;;;;;;1.35;0.57;;;15.00;99.90;;;;;;5092421;28;20028;-83
2023/05/17 09:19:45;;;;;;;0.70;0.30;;;14.90;99.90;;;;;;5092154;28;20040;-83
2023/05/17 09:22:18;;;;;;;0.17;0.17;;;15.00;99.90;;;;;;5092696;28;20077;-83
2023/05/17 09:24:43;;;;;;;1.35;1.05;;;14.80;99.90;;;;;;5091897;28;20028;-82
2023/05/17 09:27:15;;;;;;;0.00;0.00;;;14.80;99.90;;;;;;5092317;28;20491;-83
2023/05/17 09:29:43;;;;;;;0.47;0.45;;;14.90;99.90;;;;;;5092302;28;20544;-83
2023/05/17 09:32:17;;;;;;;0.20;0.20;;;15.00;99.90;;;;;;5092588;28;20483;-83
2023/05/17 09:34:44;;;;;;;0.10;0.10;;;15.40;99.90;;;;;;5092489;28;20047;-83
2023/05/17 09:37:18;;;;;;;0.10;0.10;;;15.30;99.90;;;;;;5092167;28;20100;-83
2023/05/17 09:39:45;;;;;;;0.10;0.10;;;15.50;99.90;;;;;;5091973;28;20078;-83
2023/05/17 09:42:12;;;;;;;9.02;0.75;;;15.60;99.90;;;;;;5092222;28;20035;-83
2023/05/17 09:44:52;;;;;;;0.05;0.05;;;15.90;99.90;;;;;;5091909;28;20028;-83
2023/05/17 09:47:28;;;;;;;0.32;0.20;;;16.10;99.90;;;;;;5091896;28;20632;-83
2023/05/17 09:50:01;;;;;;;0.20;0.20;;;16.30;99.90;;;;;;5092544;28;20433;-83
2023/05/17 09:52:30;;;;;;;0.22;0.08;;;16.50;99.90;;;;;;5091787;28;20514;-84
2023/05/17 09:55:00;;;;;;;0.20;0.20;;;16.70;99.90;;;;;;5091764;28;20017;-83
2023/05/17 09:57:27;;;;;;;0.00;0.00;;;16.20;99.90;;;;;;5090886;28;20024;-83
2023/05/17 09:59:56;;;;;;;0.00;0.00;;;16.40;99.90;;;;;;5092201;28;20020;-83
2023/05/17 10:02:27;;;;;;;0.10;0.10;;;15.90;99.90;;;;;;5091867;28;20024;-84
2023/05/17 10:04:57;;;;;;;0.10;0.10;;;16.10;99.90;;;;;;5092482;28;20032;-83
2023/05/17 10:07:25;;;;;;;4.13;0.52;;;15.70;99.90;;;;;;5091853;28;20388;-83
2023/05/17 10:09:52;;;;;;;0.35;0.35;;;15.70;99.90;;;;;;5091527;28;20031;-83
2023/05/17 10:12:24;;;;;;;0.22;0.22;;;15.70;99.90;;;;;;5091864;28;20040;-83
2023/05/17 10:14:51;;;;;;;0.15;0.13;;;16.00;99.90;;;;;;5091812;28;20020;-83
2023/05/17 10:17:18;;;;;;;0.00;0.00;;;16.20;99.90;;;;;;5094102;28;20340;-83
2023/05/17 10:19:45;;;;;;;0.00;0.00;;;16.10;99.90;;;;;;5096081;28;20044;-83
2023/05/17 10:22:12;;;;;;;1.33;0.63;;;15.90;99.90;;;;;;5095729;28;20024;-83
2023/05/17 10:24:38;;;;;;;0.57;0.30;;;15.60;99.90;;;;;;5095305;28;20020;-83
2023/05/17 10:27:06;;;;;;;0.40;0.17;;;15.70;99.90;;;;;;5095693;28;20032;-83
2023/05/17 10:29:33;;;;;;;0.10;0.10;;;15.60;99.90;;;;;;5095627;28;20495;-83
2023/05/17 10:32:09;;;;;;;0.32;0.32;;;15.50;99.90;;;;;;5095854;28;20035;-83
2023/05/17 10:34:36;;;;;;;0.10;0.10;;;15.30;99.90;;;;;;5095372;28;20107;-83
2023/05/17 10:37:04;;;;;;;0.10;0.10;;;15.40;99.90;;;;;;5095257;28;20028;-83
2023/05/17 10:39:33;;;;;;;0.10;0.10;;;15.40;99.90;;;;;;5095229;28;20020;-83
2023/05/17 10:42:01;;;;;;;0.05;0.05;;;15.50;99.90;;;;;;5094109;28;20391;-83
2023/05/17 10:44:31;;;;;;;0.10;0.10;;;15.40;99.90;;;;;;5095156;28;20028;-83
2023/05/17 10:46:58;;;;;;;0.10;0.10;;;15.50;99.90;;;;;;5095151;28;20024;-83
2023/05/17 10:49:32;;;;;;;0.10;0.10;;;15.40;99.90;;;;;;5095714;28;20032;-83
2023/05/17 10:51:58;;;;;;;0.00;0.00;;;15.30;99.90;;;;;;5094105;28;20042;-83
2023/05/17 10:54:35;;;;;;;0.10;0.10;;;15.40;99.90;;;;;;5095591;28;20050;-83
2023/05/17 10:57:04;;;;;;;0.00;0.00;;;15.30;99.90;;;;;;5095502;28;20024;-83
2023/05/17 10:59:31;;;;;;;0.10;0.10;;;15.40;99.90;;;;;;5095010;28;20024;-83
2023/05/17 11:02:03;;;;;;;0.05;0.05;;;15.60;99.90;;;;;;5094839;28;20028;-83
2023/05/17 11:04:52;;;;;;;0.38;0.38;;;15.60;99.90;;;;;;5094983;28;20051;-83
2023/05/17 11:07:26;;;;;;;0.10;0.10;;;15.50;99.90;;;;;;5094333;28;20108;-83
2023/05/17 11:10:02;;;;;;;0.00;0.00;;;15.50;99.90;;;;;;5094875;28;20111;-83
2023/05/17 11:12:34;;;;;;;0.10;0.10;;;15.70;99.90;;;;;;5094728;28;20032;-83
2023/05/17 11:15:11;;;;;;;0.20;0.10;;;15.70;99.90;;;;;;5094794;28;20119;-83
2023/05/17 11:17:42;;;;;;;0.40;0.40;;;15.70;99.90;;;;;;5094910;28;20133;-83
2023/05/17 11:20:28;;;;;;;0.20;0.20;;;15.60;99.90;;;;;;5094497;28;20048;-83
2023/05/17 11:23:05;;;;;;;0.10;0.10;;;15.80;99.90;;;;;;5094429;28;20081;-83
2023/05/17 11:25:39;;;;;;;6.50;0.32;;;16.10;99.90;;;;;;5094606;28;20028;-83
2023/05/17 11:28:16;;;;;;;0.10;0.10;;;16.20;99.90;;;;;;5093758;28;20063;-83
2023/05/17 11:30:49;;;;;;;0.30;0.30;;;16.50;99.90;;;;;;5094458;28;20024;-83
2023/05/17 11:33:15;;;;;;;0.08;0.05;;;16.50;99.90;;;;;;5094651;28;20032;-83
2023/05/17 11:35:41;;;;;;;0.20;0.20;;;16.20;99.90;;;;;;5093822;28;20034;-83
2023/05/17 11:38:18;;;;;;;0.20;0.20;;;16.10;99.90;;;;;;5094530;28;20028;-83
2023/05/17 11:40:49;;;;;;;1.00;0.50;;;16.10;99.90;;;;;;5094057;28;20036;-84
2023/05/17 11:43:17;;;;;;;2.67;0.70;;;16.40;99.90;;;;;;5126869;27;20031;-83
2023/05/17 11:45:46;;;;;;;0.10;0.10;;;16.10;99.90;;;;;;5094340;28;20107;-83
2023/05/17 11:48:12;;;;;;;0.85;0.80;;;16.00;99.90;;;;;;5094275;28;20441;-83
2023/05/17 11:50:40;;;;;;;0.40;0.40;;;16.00;99.90;;;;;;5093571;28;20028;-83
2023/05/17 11:53:06;;;;;;;0.10;0.10;;;15.90;99.90;;;;;;5093846;28;20510;-83
2023/05/17 11:55:38;;;;;;;0.20;0.20;;;15.80;99.90;;;;;;5093973;28;20021;-83
2023/05/17 11:58:09;;;;;;;0.28;0.28;;;15.90;99.90;;;;;;5094124;28;20032;-83
2023/05/17 12:00:40;;;;;;;0.10;0.10;;;16.20;99.90;;;;;;5093841;28;20035;-83
2023/05/17 12:03:30;;;;;;;0.10;0.10;;;16.20;99.90;;;;;;5093680;28;20357;-83
2023/05/17 12:06:13;;;;;;;0.00;0.00;;;16.00;99.90;;;;;;5093406;28;20091;-83
2023/05/17 12:08:42;;;;;;;0.10;0.10;;;15.90;99.90;;;;;;5094062;28;20028;-83
2023/05/17 12:11:12;;;;;;;0.10;0.10;;;15.90;99.90;;;;;;5093721;28;20085;-82
2023/05/17 12:13:41;;;;;;;0.38;0.38;;;16.00;99.90;;;;;;5093793;28;20020;-83
2023/05/17 12:16:11;;;;;;;0.40;0.40;;;15.90;99.90;;;;;;5093534;28;20357;-83
2023/05/17 12:18:46;;;;;;;0.20;0.10;;;15.70;99.90;;;;;;5093106;28;20472;-83
2023/05/17 12:21:14;;;;;;;0.00;0.00;;;15.70;99.90;;;;;;5091810;28;20064;-83
2023/05/17 12:23:44;;;;;;;0.17;0.17;;;15.80;99.90;;;;;;5093629;28;20055;-83
2023/05/17 12:26:15;;;;;;;0.20;0.20;;;15.90;99.90;;;;;;5093454;28;20107;-83
2023/05/17 12:28:42;;;;;;;0.13;0.13;;;15.90;99.90;;;;;;5093318;28;20016;-83
2023/05/17 12:31:13;;;;;;;0.60;0.20;;;15.80;99.90;;;;;;5093195;28;20032;-83
2023/05/17 12:33:41;;;;;;;6.28;1.33;;;15.70;99.90;;;;;;5092675;28;20560;-83
2023/05/17 12:36:09;;;;;;;0.47;0.47;;;15.70;99.90;;;;;;5093541;28;20089;-83
2023/05/17 12:38:36;;;;;;;0.00;0.00;;;15.80;99.90;;;;;;5093112;28;20085;-83
2023/05/17 12:41:04;;;;;;;0.10;0.10;;;15.70;99.90;;;;;;5092027;28;20499;-83
2023/05/17 12:43:33;;;;;;;0.60;0.20;;;15.70;99.90;;;;;;5092849;28;20028;-83
2023/05/17 12:46:10;;;;;;;0.45;0.30;;;15.60;99.90;;;;;;5093283;28;20433;-83
2023/05/17 12:48:37;;;;;;;0.00;0.00;;;15.50;99.90;;;;;;5092848;28;20028;-83
2023/05/17 12:51:13;;;;;;;0.03;0.03;;;15.50;99.90;;;;;;5092968;28;20476;-83